sensor_id;sensor_type;location;lat;lon;timestamp;pressure;altitude;pressure_sealevel;temperature;humidity
8941;BME280;4505;43.406;23.226;2022-10-31T00:01:49;100291.22;;;13.86;100.00
8941;BME280;4505;43.406;23.226;2022-10-31T00:04:16;100289.28;;;13.82;100.00
8941;BME280;4505;43.406;23.226;2022-10-31T00:06:42;100289.03;;;13.83;100.00
8941;BME280;4505;43.406;23.226;2022-10-31T00:09:09;100288.84;;;13.73;100.00
8941;BME280;4505;43.406;23.226;2022-10-31T00:11:36;100292.94;;;13.64;100.00
8941;BME280;4505;43.406;23.226;2022-10-31T00:14:02;100282.84;;;13.66;100.00
8941;BME280;4505;43.406;23.226;2022-10-31T00:16:30;100297.09;;;13.72;100.00
8941;BME280;4505;43.406;23.226;2022-10-31T00:18:57;100279.50;;;13.59;100.00
8941;BME280;4505;43.406;23.226;2022-10-31T00:21:24;100282.50;;;13.63;100.00
8941;BME280;4505;43.406;23.226;2022-10-31T00:23:51;100270.06;;;13.68;100.00
8941;BME280;4505;43.406;23.226;2022-10-31T00:26:18;100269.91;;;13.75;100.00
8941;BME280;4505;43.406;23.226;2022-10-31T00:28:45;100268.88;;;13.92;100.00
8941;BME280;4505;43.406;23.226;2022-10-31T00:31:11;100265.09;;;14.21;100.00
8941;BME280;4505;43.406;23.226;2022-10-31T00:33:40;100272.50;;;14.31;100.00
8941;BME280;4505;43.406;23.226;2022-10-31T00:36:07;100270.16;;;14.34;100.00
8941;BME280;4505;43.406;23.226;2022-10-31T00:38:36;100270.31;;;14.45;100.00
8941;BME280;4505;43.406;23.226;2022-10-31T00:41:03;100275.91;;;14.43;100.00
8941;BME280;4505;43.406;23.226;2022-10-31T00:43:30;100271.75;;;14.52;100.00
8941;BME280;4505;43.406;23.226;2022-10-31T00:45:56;100272.81;;;14.51;100.00
8941;BME280;4505;43.406;23.226;2022-10-31T00:48:23;100271.34;;;14.44;100.00
8941;BME280;4505;43.406;23.226;2022-10-31T00:50:51;100271.59;;;14.42;100.00
8941;BME280;4505;43.406;23.226;2022-10-31T00:53:18;100276.41;;;14.40;100.00
8941;BME280;4505;43.406;23.226;2022-10-31T00:55:44;100275.53;;;14.23;100.00
8941;BME280;4505;43.406;23.226;2022-10-31T00:58:11;100278.06;;;14.13;100.00
8941;BME280;4505;43.406;23.226;2022-10-31T01:00:37;100275.47;;;14.01;100.00
8941;BME280;4505;43.406;23.226;2022-10-31T01:03:04;100280.00;;;14.01;100.00
8941;BME280;4505;43.406;23.226;2022-10-31T01:05:31;100277.31;;;14.01;100.00
8941;BME280;4505;43.406;23.226;2022-10-31T01:07:59;100276.59;;;13.89;100.00
8941;BME280;4505;43.406;23.226;2022-10-31T01:10:25;100270.53;;;13.93;100.00
8941;BME280;4505;43.406;23.226;2022-10-31T01:12:52;100272.88;;;13.90;100.00
8941;BME280;4505;43.406;23.226;2022-10-31T01:15:19;100263.31;;;13.94;100.00
8941;BME280;4505;43.406;23.226;2022-10-31T01:17:46;100272.28;;;13.88;100.00
8941;BME280;4505;43.406;23.226;2022-10-31T01:20:13;100280.88;;;13.90;100.00
8941;BME280;4505;43.406;23.226;2022-10-31T01:22:40;100275.09;;;13.81;100.00
8941;BME280;4505;43.406;23.226;2022-10-31T01:25:09;100285.28;;;13.68;100.00
8941;BME280;4505;43.406;23.226;2022-10-31T01:27:36;100281.84;;;13.84;100.00
8941;BME280;4505;43.406;23.226;2022-10-31T01:30:03;100280.53;;;13.86;100.00
8941;BME280;4505;43.406;23.226;2022-10-31T01:32:29;100284.81;;;13.87;100.00
8941;BME280;4505;43.406;23.226;2022-10-31T01:34:56;100279.06;;;13.79;100.00
8941;BME280;4505;43.406;23.226;2022-10-31T01:37:23;100284.66;;;13.77;100.00
8941;BME280;4505;43.406;23.226;2022-10-31T01:39:50;100284.81;;;13.71;100.00
8941;BME280;4505;43.406;23.226;2022-10-31T01:42:19;100283.16;;;13.70;100.00
8941;BME280;4505;43.406;23.226;2022-10-31T01:44:51;100287.72;;;13.69;100.00
8941;BME280;4505;43.406;23.226;2022-10-31T01:47:19;100281.94;;;13.61;100.00
8941;BME280;4505;43.406;23.226;2022-10-31T01:49:52;100291.88;;;13.49;100.00
8941;BME280;4505;43.406;23.226;2022-10-31T01:52:21;100291.28;;;13.47;100.00
8941;BME280;4505;43.406;23.226;2022-10-31T01:54:52;100290.13;;;13.43;100.00
8941;BME280;4505;43.406;23.226;2022-10-31T01:57:21;100290.47;;;13.46;100.00
8941;BME280;4505;43.406;23.226;2022-10-31T01:59:49;100293.13;;;13.46;100.00
8941;BME280;4505;43.406;23.226;2022-10-31T02:02:17;100297.22;;;13.37;100.00
8941;BME280;4505;43.406;23.226;2022-10-31T02:04:44;100300.94;;;13.36;100.00
8941;BME280;4505;43.406;23.226;2022-10-31T02:07:13;100292.03;;;13.31;100.00
8941;BME280;4505;43.406;23.226;2022-10-31T02:09:41;100290.69;;;13.45;100.00
8941;BME280;4505;43.406;23.226;2022-10-31T02:12:09;100295.91;;;13.51;100.00
8941;BME280;4505;43.406;23.226;2022-10-31T02:14:38;100300.91;;;13.48;100.00
8941;BME280;4505;43.406;23.226;2022-10-31T02:17:05;100295.56;;;13.48;100.00
8941;BME280;4505;43.406;23.226;2022-10-31T02:19:34;100298.94;;;13.43;100.00
8941;BME280;4505;43.406;23.226;2022-10-31T02:22:02;100296.03;;;13.45;100.00
8941;BME280;4505;43.406;23.226;2022-10-31T02:24:46;100294.44;;;13.44;100.00
8941;BME280;4505;43.406;23.226;2022-10-31T02:27:35;100300.94;;;13.36;100.00
8941;BME280;4505;43.406;23.226;2022-10-31T02:30:11;100293.72;;;13.48;100.00
8941;BME280;4505;43.406;23.226;2022-10-31T02:32:48;100301.00;;;13.53;100.00
8941;BME280;4505;43.406;23.226;2022-10-31T02:35:23;100300.03;;;13.59;100.00
8941;BME280;4505;43.406;23.226;2022-10-31T02:37:53;100296.72;;;13.52;100.00
8941;BME280;4505;43.406;23.226;2022-10-31T02:40:23;100303.19;;;13.56;100.00
8941;BME280;4505;43.406;23.226;2022-10-31T02:42:54;100312.38;;;13.48;100.00
8941;BME280;4505;43.406;23.226;2022-10-31T02:45:25;100322.13;;;13.43;100.00
8941;BME280;4505;43.406;23.226;2022-10-31T02:47:57;100330.03;;;13.38;100.00
8941;BME280;4505;43.406;23.226;2022-10-31T02:50:25;100321.59;;;13.29;100.00
8941;BME280;4505;43.406;23.226;2022-10-31T02:52:53;100327.84;;;13.23;100.00
8941;BME280;4505;43.406;23.226;2022-10-31T02:58:06;100321.84;;;13.28;100.00
8941;BME280;4505;43.406;23.226;2022-10-31T03:00:35;100320.56;;;13.30;100.00
8941;BME280;4505;43.406;23.226;2022-10-31T03:03:05;100320.78;;;13.29;100.00
8941;BME280;4505;43.406;23.226;2022-10-31T03:05:40;100326.47;;;13.32;100.00
8941;BME280;4505;43.406;23.226;2022-10-31T03:08:11;100327.41;;;13.26;100.00
8941;BME280;4505;43.406;23.226;2022-10-31T03:10:42;100330.75;;;13.33;100.00
8941;BME280;4505;43.406;23.226;2022-10-31T03:13:10;100326.94;;;13.29;100.00
8941;BME280;4505;43.406;23.226;2022-10-31T03:15:39;100338.75;;;13.22;100.00
8941;BME280;4505;43.406;23.226;2022-10-31T03:18:11;100329.25;;;13.26;100.00
8941;BME280;4505;43.406;23.226;2022-10-31T03:20:41;100337.03;;;13.27;100.00
8941;BME280;4505;43.406;23.226;2022-10-31T03:23:12;100335.41;;;13.26;100.00
8941;BME280;4505;43.406;23.226;2022-10-31T03:25:40;100339.34;;;13.24;100.00
8941;BME280;4505;43.406;23.226;2022-10-31T03:28:07;100344.59;;;13.07;100.00
8941;BME280;4505;43.406;23.226;2022-10-31T03:30:35;100336.38;;;13.09;100.00
8941;BME280;4505;43.406;23.226;2022-10-31T03:33:04;100344.47;;;12.90;100.00
8941;BME280;4505;43.406;23.226;2022-10-31T03:35:35;100337.28;;;13.03;100.00
8941;BME280;4505;43.406;23.226;2022-10-31T03:38:02;100345.13;;;12.97;100.00
8941;BME280;4505;43.406;23.226;2022-10-31T03:40:29;100338.34;;;13.02;100.00
8941;BME280;4505;43.406;23.226;2022-10-31T03:42:58;100332.06;;;13.08;100.00
8941;BME280;4505;43.406;23.226;2022-10-31T03:45:26;100334.03;;;13.12;100.00
8941;BME280;4505;43.406;23.226;2022-10-31T03:47:54;100328.47;;;13.14;100.00
8941;BME280;4505;43.406;23.226;2022-10-31T03:50:21;100335.19;;;13.16;100.00
8941;BME280;4505;43.406;23.226;2022-10-31T03:52:53;100338.22;;;13.08;100.00
8941;BME280;4505;43.406;23.226;2022-10-31T03:55:24;100341.78;;;13.14;100.00
8941;BME280;4505;43.406;23.226;2022-10-31T03:57:54;100339.72;;;13.04;100.00
8941;BME280;4505;43.406;23.226;2022-10-31T04:00:24;100345.06;;;12.92;100.00
8941;BME280;4505;43.406;23.226;2022-10-31T04:02:51;100348.84;;;12.96;100.00
8941;BME280;4505;43.406;23.226;2022-10-31T04:05:20;100353.50;;;12.89;100.00
8941;BME280;4505;43.406;23.226;2022-10-31T04:07:47;100343.41;;;12.91;100.00
8941;BME280;4505;43.406;23.226;2022-10-31T04:10:17;100352.34;;;12.97;100.00
8941;BME280;4505;43.406;23.226;2022-10-31T04:12:46;100350.94;;;12.94;100.00
8941;BME280;4505;43.406;23.226;2022-10-31T04:15:15;100348.16;;;12.89;100.00
8941;BME280;4505;43.406;23.226;2022-10-31T04:17:41;100353.72;;;12.88;100.00
8941;BME280;4505;43.406;23.226;2022-10-31T04:20:10;100351.06;;;12.88;100.00
8941;BME280;4505;43.406;23.226;2022-10-31T04:22:37;100355.59;;;12.76;100.00
8941;BME280;4505;43.406;23.226;2022-10-31T04:25:03;100359.19;;;12.70;100.00
8941;BME280;4505;43.406;23.226;2022-10-31T04:27:31;100361.84;;;12.58;100.00
8941;BME280;4505;43.406;23.226;2022-10-31T04:29:58;100349.31;;;12.47;100.00
8941;BME280;4505;43.406;23.226;2022-10-31T04:32:25;100353.94;;;12.40;100.00
8941;BME280;4505;43.406;23.226;2022-10-31T04:34:52;100357.50;;;12.34;100.00
8941;BME280;4505;43.406;23.226;2022-10-31T04:37:18;100355.22;;;12.38;100.00
8941;BME280;4505;43.406;23.226;2022-10-31T04:39:45;100359.94;;;12.36;100.00
8941;BME280;4505;43.406;23.226;2022-10-31T04:42:11;100357.63;;;12.39;100.00
8941;BME280;4505;43.406;23.226;2022-10-31T04:44:39;100359.94;;;12.36;100.00
8941;BME280;4505;43.406;23.226;2022-10-31T04:47:06;100359.94;;;12.36;100.00
8941;BME280;4505;43.406;23.226;2022-10-31T04:49:32;100358.19;;;12.41;100.00
8941;BME280;4505;43.406;23.226;2022-10-31T04:51:59;100358.44;;;12.40;100.00
8941;BME280;4505;43.406;23.226;2022-10-31T04:54:26;100356.25;;;12.48;100.00
8941;BME280;4505;43.406;23.226;2022-10-31T04:56:52;100357.53;;;12.46;100.00
8941;BME280;4505;43.406;23.226;2022-10-31T04:59:19;100351.97;;;12.47;100.00
8941;BME280;4505;43.406;23.226;2022-10-31T05:01:47;100354.16;;;12.39;100.00
8941;BME280;4505;43.406;23.226;2022-10-31T05:04:13;100364.59;;;12.52;100.00
8941;BME280;4505;43.406;23.226;2022-10-31T05:06:40;100366.31;;;12.46;100.00
8941;BME280;4505;43.406;23.226;2022-10-31T05:09:06;100362.63;;;12.47;100.00
8941;BME280;4505;43.406;23.226;2022-10-31T05:11:33;100369.56;;;12.48;100.00
8941;BME280;4505;43.406;23.226;2022-10-31T05:13:59;100370.63;;;12.59;100.00
8941;BME280;4505;43.406;23.226;2022-10-31T05:16:26;100358.25;;;12.64;100.00
8941;BME280;4505;43.406;23.226;2022-10-31T05:18:54;100360.34;;;12.74;100.00
8941;BME280;4505;43.406;23.226;2022-10-31T05:21:20;100363.56;;;12.64;100.00
8941;BME280;4505;43.406;23.226;2022-10-31T05:23:47;100358.84;;;12.78;100.00
8941;BME280;4505;43.406;23.226;2022-10-31T05:26:13;100369.38;;;12.84;100.00
8941;BME280;4505;43.406;23.226;2022-10-31T05:28:40;100369.59;;;12.83;100.00
8941;BME280;4505;43.406;23.226;2022-10-31T05:31:07;100372.63;;;12.86;100.00
8941;BME280;4505;43.406;23.226;2022-10-31T05:33:33;100380.38;;;12.88;100.00
8941;BME280;4505;43.406;23.226;2022-10-31T05:36:10;100378.34;;;13.02;100.00
8941;BME280;4505;43.406;23.226;2022-10-31T05:38:42;100385.50;;;13.13;100.00
8941;BME280;4505;43.406;23.226;2022-10-31T05:41:08;100387.81;;;13.21;100.00
8941;BME280;4505;43.406;23.226;2022-10-31T05:43:35;100391.19;;;13.28;100.00
8941;BME280;4505;43.406;23.226;2022-10-31T05:46:04;100390.72;;;13.31;100.00
8941;BME280;4505;43.406;23.226;2022-10-31T05:48:31;100383.19;;;13.28;100.00
8941;BME280;4505;43.406;23.226;2022-10-31T05:50:58;100394.63;;;13.40;100.00
8941;BME280;4505;43.406;23.226;2022-10-31T05:53:26;100394.75;;;13.45;100.00
8941;BME280;4505;43.406;23.226;2022-10-31T05:55:52;100392.19;;;13.50;100.00
8941;BME280;4505;43.406;23.226;2022-10-31T05:58:19;100398.78;;;13.59;100.00
8941;BME280;4505;43.406;23.226;2022-10-31T06:00:45;100397.63;;;13.66;100.00
8941;BME280;4505;43.406;23.226;2022-10-31T06:03:12;100400.72;;;13.63;100.00
8941;BME280;4505;43.406;23.226;2022-10-31T06:05:38;100395.75;;;13.55;100.00
8941;BME280;4505;43.406;23.226;2022-10-31T06:08:05;100390.88;;;13.64;100.00
8941;BME280;4505;43.406;23.226;2022-10-31T06:10:33;100396.53;;;13.79;100.00
8941;BME280;4505;43.406;23.226;2022-10-31T06:12:59;100397.75;;;13.88;100.00
8941;BME280;4505;43.406;23.226;2022-10-31T06:15:26;100411.78;;;13.95;100.00
8941;BME280;4505;43.406;23.226;2022-10-31T06:17:59;100406.66;;;14.05;100.00
8941;BME280;4505;43.406;23.226;2022-10-31T06:20:26;100403.91;;;14.16;100.00
8941;BME280;4505;43.406;23.226;2022-10-31T06:22:53;100404.22;;;14.31;100.00
8941;BME280;4505;43.406;23.226;2022-10-31T06:25:19;100406.66;;;14.33;100.00
8941;BME280;4505;43.406;23.226;2022-10-31T06:27:47;100401.09;;;14.51;100.00
8941;BME280;4505;43.406;23.226;2022-10-31T06:30:14;100409.84;;;14.47;100.00
8941;BME280;4505;43.406;23.226;2022-10-31T06:32:41;100410.06;;;14.28;100.00
8941;BME280;4505;43.406;23.226;2022-10-31T06:35:07;100417.78;;;14.58;100.00
8941;BME280;4505;43.406;23.226;2022-10-31T06:37:34;100417.88;;;14.80;100.00
8941;BME280;4505;43.406;23.226;2022-10-31T06:40:01;100422.75;;;14.99;100.00
8941;BME280;4505;43.406;23.226;2022-10-31T06:42:27;100417.13;;;15.17;100.00
8941;BME280;4505;43.406;23.226;2022-10-31T06:44:55;100426.50;;;15.36;100.00
8941;BME280;4505;43.406;23.226;2022-10-31T06:47:22;100433.06;;;15.45;100.00
8941;BME280;4505;43.406;23.226;2022-10-31T06:49:49;100435.97;;;15.60;100.00
8941;BME280;4505;43.406;23.226;2022-10-31T06:52:15;100438.06;;;15.58;100.00
8941;BME280;4505;43.406;23.226;2022-10-31T06:54:42;100437.19;;;15.96;100.00
8941;BME280;4505;43.406;23.226;2022-10-31T06:57:09;100442.00;;;15.94;100.00
8941;BME280;4505;43.406;23.226;2022-10-31T06:59:35;100441.31;;;16.04;100.00
8941;BME280;4505;43.406;23.226;2022-10-31T07:02:03;100440.47;;;16.25;100.00
8941;BME280;4505;43.406;23.226;2022-10-31T07:04:30;100440.19;;;16.48;100.00
8941;BME280;4505;43.406;23.226;2022-10-31T07:06:56;100437.03;;;16.56;100.00
8941;BME280;4505;43.406;23.226;2022-10-31T07:09:23;100438.16;;;16.60;100.00
8941;BME280;4505;43.406;23.226;2022-10-31T07:11:51;100437.16;;;16.44;100.00
8941;BME280;4505;43.406;23.226;2022-10-31T07:14:18;100430.41;;;16.95;100.00
8941;BME280;4505;43.406;23.226;2022-10-31T07:16:47;100429.38;;;17.01;100.00
8941;BME280;4505;43.406;23.226;2022-10-31T07:19:15;100426.06;;;17.26;100.00
8941;BME280;4505;43.406;23.226;2022-10-31T07:21:42;100434.41;;;17.29;100.00
8941;BME280;4505;43.406;23.226;2022-10-31T07:24:08;100422.06;;;17.80;100.00
8941;BME280;4505;43.406;23.226;2022-10-31T07:26:35;100440.28;;;18.39;100.00
8941;BME280;4505;43.406;23.226;2022-10-31T07:29:01;100433.59;;;18.62;100.00
8941;BME280;4505;43.406;23.226;2022-10-31T07:31:28;100429.97;;;18.16;100.00
8941;BME280;4505;43.406;23.226;2022-10-31T07:33:54;100438.78;;;17.92;100.00
8941;BME280;4505;43.406;23.226;2022-10-31T07:36:22;100433.50;;;18.27;100.00
8941;BME280;4505;43.406;23.226;2022-10-31T07:38:49;100429.81;;;18.48;100.00
8941;BME280;4505;43.406;23.226;2022-10-31T07:41:16;100421.47;;;18.44;100.00
8941;BME280;4505;43.406;23.226;2022-10-31T07:43:42;100425.53;;;18.67;100.00
8941;BME280;4505;43.406;23.226;2022-10-31T07:46:09;100415.03;;;19.06;100.00
8941;BME280;4505;43.406;23.226;2022-10-31T07:48:36;100425.25;;;19.09;100.00
8941;BME280;4505;43.406;23.226;2022-10-31T07:51:03;100432.50;;;19.13;100.00
8941;BME280;4505;43.406;23.226;2022-10-31T07:53:31;100425.50;;;19.12;100.00
8941;BME280;4505;43.406;23.226;2022-10-31T07:55:58;100429.75;;;19.53;100.00
8941;BME280;4505;43.406;23.226;2022-10-31T07:58:24;100422.50;;;19.39;100.00
8941;BME280;4505;43.406;23.226;2022-10-31T08:03:39;100431.22;;;19.89;100.00
8941;BME280;4505;43.406;23.226;2022-10-31T08:06:09;100422.38;;;19.84;100.00
8941;BME280;4505;43.406;23.226;2022-10-31T08:08:38;100419.34;;;20.44;100.00
8941;BME280;4505;43.406;23.226;2022-10-31T08:11:06;100412.06;;;20.45;100.00
8941;BME280;4505;43.406;23.226;2022-10-31T08:13:33;100415.06;;;20.77;100.00
8941;BME280;4505;43.406;23.226;2022-10-31T08:15:59;100405.50;;;20.89;100.00
8941;BME280;4505;43.406;23.226;2022-10-31T08:18:29;100404.72;;;20.89;100.00
8941;BME280;4505;43.406;23.226;2022-10-31T08:20:57;100403.38;;;21.15;95.68
8941;BME280;4505;43.406;23.226;2022-10-31T08:23:23;100405.88;;;21.59;91.60
8941;BME280;4505;43.406;23.226;2022-10-31T08:25:50;100404.69;;;21.93;88.26
8941;BME280;4505;43.406;23.226;2022-10-31T08:28:17;100406.84;;;22.47;81.96
8941;BME280;4505;43.406;23.226;2022-10-31T08:30:43;100401.84;;;23.05;77.59
8941;BME280;4505;43.406;23.226;2022-10-31T08:33:11;100398.88;;;22.74;70.84
8941;BME280;4505;43.406;23.226;2022-10-31T08:35:38;100395.56;;;23.23;66.83
8941;BME280;4505;43.406;23.226;2022-10-31T08:38:14;100402.00;;;23.27;64.13
8941;BME280;4505;43.406;23.226;2022-10-31T08:41:00;100402.59;;;23.24;66.77
8941;BME280;4505;43.406;23.226;2022-10-31T08:43:40;100400.03;;;23.59;64.76
8941;BME280;4505;43.406;23.226;2022-10-31T08:46:19;100401.22;;;23.67;62.67
8941;BME280;4505;43.406;23.226;2022-10-31T08:49:10;100396.09;;;23.25;60.94
8941;BME280;4505;43.406;23.226;2022-10-31T08:51:40;100402.69;;;24.14;60.55
8941;BME280;4505;43.406;23.226;2022-10-31T08:54:08;100399.59;;;23.93;58.50
8941;BME280;4505;43.406;23.226;2022-10-31T08:56:34;100402.06;;;23.54;57.82
8941;BME280;4505;43.406;23.226;2022-10-31T08:59:01;100397.81;;;24.02;58.29
8941;BME280;4505;43.406;23.226;2022-10-31T09:01:27;100399.09;;;24.40;53.97
8941;BME280;4505;43.406;23.226;2022-10-31T09:03:54;100397.06;;;23.96;53.88
8941;BME280;4505;43.406;23.226;2022-10-31T09:06:21;100391.28;;;24.83;49.68
8941;BME280;4505;43.406;23.226;2022-10-31T09:08:47;100391.78;;;24.27;50.36
8941;BME280;4505;43.406;23.226;2022-10-31T09:11:15;100394.47;;;24.41;50.44
8941;BME280;4505;43.406;23.226;2022-10-31T09:13:42;100379.06;;;25.02;48.79
8941;BME280;4505;43.406;23.226;2022-10-31T09:16:09;100382.47;;;25.39;46.12
8941;BME280;4505;43.406;23.226;2022-10-31T09:18:36;100386.22;;;24.90;46.43
8941;BME280;4505;43.406;23.226;2022-10-31T09:21:03;100385.75;;;24.96;45.90
8941;BME280;4505;43.406;23.226;2022-10-31T09:23:29;100377.06;;;25.47;46.86
8941;BME280;4505;43.406;23.226;2022-10-31T09:25:58;100381.53;;;25.43;46.24
8941;BME280;4505;43.406;23.226;2022-10-31T09:28:26;100381.34;;;25.40;45.79
8941;BME280;4505;43.406;23.226;2022-10-31T09:30:53;100385.16;;;25.86;44.12
8941;BME280;4505;43.406;23.226;2022-10-31T09:33:20;100386.50;;;26.48;43.52
8941;BME280;4505;43.406;23.226;2022-10-31T09:35:46;100383.81;;;25.27;45.60
8941;BME280;4505;43.406;23.226;2022-10-31T09:38:14;100385.41;;;26.15;43.87
8941;BME280;4505;43.406;23.226;2022-10-31T09:40:41;100378.16;;;27.34;42.77
8941;BME280;4505;43.406;23.226;2022-10-31T09:43:13;100380.47;;;27.81;40.64
8941;BME280;4505;43.406;23.226;2022-10-31T09:45:44;100380.13;;;28.53;38.50
8941;BME280;4505;43.406;23.226;2022-10-31T09:48:17;100376.22;;;25.94;42.09
8941;BME280;4505;43.406;23.226;2022-10-31T09:50:48;100376.59;;;26.27;42.49
8941;BME280;4505;43.406;23.226;2022-10-31T09:53:17;100375.41;;;24.98;45.04
8941;BME280;4505;43.406;23.226;2022-10-31T09:55:47;100375.78;;;25.14;45.53
8941;BME280;4505;43.406;23.226;2022-10-31T09:58:15;100375.56;;;25.02;46.00
8941;BME280;4505;43.406;23.226;2022-10-31T10:00:44;100370.47;;;25.09;45.89
8941;BME280;4505;43.406;23.226;2022-10-31T10:03:13;100369.63;;;25.95;44.95
8941;BME280;4505;43.406;23.226;2022-10-31T10:05:43;100362.97;;;27.16;42.63
8941;BME280;4505;43.406;23.226;2022-10-31T10:08:16;100364.53;;;27.63;39.88
8941;BME280;4505;43.406;23.226;2022-10-31T10:10:49;100354.44;;;26.62;40.79
8941;BME280;4505;43.406;23.226;2022-10-31T10:16:06;100355.31;;;27.47;39.91
8941;BME280;4505;43.406;23.226;2022-10-31T10:18:42;100354.16;;;26.21;41.68
8941;BME280;4505;43.406;23.226;2022-10-31T10:21:16;100355.44;;;26.32;42.87
8941;BME280;4505;43.406;23.226;2022-10-31T10:23:50;100347.31;;;27.71;40.37
8941;BME280;4505;43.406;23.226;2022-10-31T10:26:22;100344.41;;;28.70;37.99
8941;BME280;4505;43.406;23.226;2022-10-31T10:28:51;100348.50;;;28.64;37.20
8941;BME280;4505;43.406;23.226;2022-10-31T10:31:23;100343.44;;;27.72;39.07
8941;BME280;4505;43.406;23.226;2022-10-31T10:33:55;100344.69;;;26.44;40.83
8941;BME280;4505;43.406;23.226;2022-10-31T10:36:25;100343.56;;;25.77;42.55
8941;BME280;4505;43.406;23.226;2022-10-31T10:38:54;100337.47;;;25.97;42.43
8941;BME280;4505;43.406;23.226;2022-10-31T10:41:31;100331.97;;;26.83;41.69
8941;BME280;4505;43.406;23.226;2022-10-31T10:44:01;100335.53;;;27.58;39.55
8941;BME280;4505;43.406;23.226;2022-10-31T10:46:32;100328.13;;;26.84;40.65
8941;BME280;4505;43.406;23.226;2022-10-31T10:49:25;100330.63;;;27.93;39.52
8941;BME280;4505;43.406;23.226;2022-10-31T10:51:54;100328.56;;;28.11;37.74
8941;BME280;4505;43.406;23.226;2022-10-31T10:54:38;100323.38;;;28.18;38.35
8941;BME280;4505;43.406;23.226;2022-10-31T10:57:07;100318.78;;;29.31;35.85
8941;BME280;4505;43.406;23.226;2022-10-31T10:59:37;100328.31;;;29.01;36.04
8941;BME280;4505;43.406;23.226;2022-10-31T11:02:23;100316.47;;;29.46;35.85
8941;BME280;4505;43.406;23.226;2022-10-31T11:04:51;100314.03;;;30.20;34.75
8941;BME280;4505;43.406;23.226;2022-10-31T11:07:18;100321.19;;;28.76;34.55
8941;BME280;4505;43.406;23.226;2022-10-31T11:09:44;100313.31;;;29.07;34.96
8941;BME280;4505;43.406;23.226;2022-10-31T11:12:15;100318.44;;;28.64;35.36
8941;BME280;4505;43.406;23.226;2022-10-31T11:14:44;100312.38;;;27.85;36.37
8941;BME280;4505;43.406;23.226;2022-10-31T11:17:17;100304.75;;;27.49;36.39
8941;BME280;4505;43.406;23.226;2022-10-31T11:19:58;100304.56;;;28.81;35.93
8941;BME280;4505;43.406;23.226;2022-10-31T11:22:25;100305.59;;;27.91;35.77
8941;BME280;4505;43.406;23.226;2022-10-31T11:24:52;100299.75;;;28.01;35.78
8941;BME280;4505;43.406;23.226;2022-10-31T11:27:19;100303.72;;;26.96;37.16
8941;BME280;4505;43.406;23.226;2022-10-31T11:29:46;100298.25;;;26.41;38.31
8941;BME280;4505;43.406;23.226;2022-10-31T11:32:17;100294.72;;;27.04;37.64
8941;BME280;4505;43.406;23.226;2022-10-31T11:34:45;100294.72;;;27.04;36.86
8941;BME280;4505;43.406;23.226;2022-10-31T11:37:15;100293.16;;;26.94;37.31
8941;BME280;4505;43.406;23.226;2022-10-31T11:39:43;100298.66;;;27.73;36.38
8941;BME280;4505;43.406;23.226;2022-10-31T11:42:13;100290.91;;;28.69;35.56
8941;BME280;4505;43.406;23.226;2022-10-31T11:44:41;100298.66;;;28.14;35.00
8941;BME280;4505;43.406;23.226;2022-10-31T11:47:09;100298.44;;;27.57;35.79
8941;BME280;4505;43.406;23.226;2022-10-31T11:49:40;100293.50;;;28.33;35.12
8941;BME280;4505;43.406;23.226;2022-10-31T11:52:08;100290.03;;;27.91;35.89
8941;BME280;4505;43.406;23.226;2022-10-31T11:54:37;100291.00;;;28.73;35.19
8941;BME280;4505;43.406;23.226;2022-10-31T11:57:19;100285.78;;;28.68;34.97
8941;BME280;4505;43.406;23.226;2022-10-31T11:59:50;100286.34;;;29.70;33.64
8941;BME280;4505;43.406;23.226;2022-10-31T12:02:18;100282.72;;;29.05;33.93
8941;BME280;4505;43.406;23.226;2022-10-31T12:04:47;100287.16;;;28.41;34.47
8941;BME280;4505;43.406;23.226;2022-10-31T12:07:24;100282.06;;;26.99;36.71
8941;BME280;4505;43.406;23.226;2022-10-31T12:09:57;100278.88;;;26.89;37.43
8941;BME280;4505;43.406;23.226;2022-10-31T12:12:28;100277.66;;;27.44;36.85
8941;BME280;4505;43.406;23.226;2022-10-31T12:15:01;100277.44;;;27.99;36.67
8941;BME280;4505;43.406;23.226;2022-10-31T12:17:33;100282.53;;;27.59;35.80
8941;BME280;4505;43.406;23.226;2022-10-31T12:20:05;100277.59;;;27.24;36.20
8941;BME280;4505;43.406;23.226;2022-10-31T12:22:38;100276.44;;;27.33;35.73
8941;BME280;4505;43.406;23.226;2022-10-31T12:25:13;100265.97;;;27.64;35.65
8941;BME280;4505;43.406;23.226;2022-10-31T12:27:54;100271.81;;;28.49;34.67
8941;BME280;4505;43.406;23.226;2022-10-31T12:30:23;100268.22;;;27.42;35.89
8941;BME280;4505;43.406;23.226;2022-10-31T12:32:56;100268.25;;;28.03;35.54
8941;BME280;4505;43.406;23.226;2022-10-31T12:35:29;100269.16;;;28.85;34.37
8941;BME280;4505;43.406;23.226;2022-10-31T12:38:18;100265.31;;;29.10;33.83
8941;BME280;4505;43.406;23.226;2022-10-31T12:40:58;100266.22;;;28.13;34.79
8941;BME280;4505;43.406;23.226;2022-10-31T12:43:39;100257.97;;;28.78;33.99
8941;BME280;4505;43.406;23.226;2022-10-31T12:46:12;100264.03;;;28.83;34.26
8941;BME280;4505;43.406;23.226;2022-10-31T12:48:54;100264.06;;;29.31;34.05
8941;BME280;4505;43.406;23.226;2022-10-31T12:51:24;100258.09;;;29.05;33.14
8941;BME280;4505;43.406;23.226;2022-10-31T12:54:01;100267.13;;;28.17;34.18
8941;BME280;4505;43.406;23.226;2022-10-31T12:56:34;100254.78;;;28.31;34.49
8941;BME280;4505;43.406;23.226;2022-10-31T12:59:04;100261.41;;;28.63;33.98
8941;BME280;4505;43.406;23.226;2022-10-31T13:01:34;100257.78;;;28.95;33.84
8941;BME280;4505;43.406;23.226;2022-10-31T13:04:04;100260.19;;;29.08;33.50
8941;BME280;4505;43.406;23.226;2022-10-31T13:06:38;100262.13;;;29.20;33.16
8941;BME280;4505;43.406;23.226;2022-10-31T13:09:07;100262.63;;;28.53;33.33
8941;BME280;4505;43.406;23.226;2022-10-31T13:11:36;100257.66;;;28.35;34.09